Time;durP1;ratioP1;P1;durP2;ratioP2;P2;SDS_P1;SDS_P2;PMS_P1;PMS_P2;Temp;Humidity;BMP_temperature;BMP_pressure;BME280_temperature;BME280_humidity;BME280_pressure;Samples;Min_cycle;Max_cycle;Signal;HPM_P1;HPM_P2
2021/10/03 00:00:11;;;;;;;8.03;3.60;;;;;;;15.56;100.00;99600.56;7405212;19;20846;-53
2021/10/03 00:02:42;;;;;;;9.83;6.20;;;;;;;15.60;100.00;99588.44;7397509;19;20470;-56
2021/10/03 00:05:13;;;;;;;5.10;3.30;;;;;;;15.29;100.00;99580.53;7405214;19;20391;-57
2021/10/03 00:07:44;;;;;;;10.80;4.60;;;;;;;15.36;100.00;99580.56;7396848;19;20407;-56
2021/10/03 00:10:15;;;;;;;11.40;6.87;;;;;;;15.38;100.00;99572.75;7404302;19;20405;-56
2021/10/03 00:12:47;;;;;;;7.30;3.90;;;;;;;15.32;100.00;99558.03;7396234;19;20864;-53
2021/10/03 00:15:18;;;;;;;7.77;4.83;;;;;;;15.31;100.00;99543.31;7404891;19;20463;-57
2021/10/03 00:17:48;;;;;;;7.13;4.70;;;;;;;15.38;100.00;99533.78;7396434;19;20439;-57
2021/10/03 00:20:19;;;;;;;7.23;3.93;;;;;;;15.37;100.00;99524.25;7404374;19;20439;-57
2021/10/03 00:22:50;;;;;;;6.10;3.63;;;;;;;15.45;100.00;99524.28;7397280;19;20429;-57
2021/10/03 00:25:20;;;;;;;5.70;4.13;;;;;;;15.50;100.00;99520.81;7404464;19;20392;-57
2021/10/03 00:27:52;;;;;;;5.20;3.37;;;;;;;15.55;100.00;99519.97;7396731;19;20422;-52
2021/10/03 00:30:21;;;;;;;6.80;4.13;;;;;;;15.53;100.00;99510.44;7403151;19;20657;-55
2021/10/03 00:32:51;;;;;;;5.63;3.97;;;;;;;15.62;100.00;99514.78;7396751;19;20486;-57
2021/10/03 00:35:21;;;;;;;6.60;4.00;;;;;;;15.60;100.00;99515.63;7404118;19;20396;-57
2021/10/03 00:37:51;;;;;;;12.50;7.57;;;;;;;15.66;100.00;99511.28;7396080;19;20515;-55
2021/10/03 00:40:20;;;;;;;7.93;4.33;;;;;;;15.72;100.00;99507.84;7403712;19;20448;-57
2021/10/03 00:42:53;;;;;;;6.23;4.33;;;;;;;15.75;100.00;99513.03;7396427;19;20446;-58
2021/10/03 00:45:22;;;;;;;5.40;4.00;;;;;;;15.88;100.00;99510.44;7403426;19;20640;-55
2021/10/03 00:47:51;;;;;;;6.63;4.20;;;;;;;15.91;100.00;99505.25;7395817;19;20727;-57
2021/10/03 00:50:21;;;;;;;7.13;4.50;;;;;;;15.99;100.00;99503.53;7401870;19;20903;-56
2021/10/03 00:52:52;;;;;;;5.90;3.90;;;;;;;16.05;100.00;99498.34;7396070;19;20437;-57
2021/10/03 00:55:21;;;;;;;9.00;3.90;;;;;;;16.19;100.00;99487.03;7405929;19;20406;-56
2021/10/03 00:57:55;;;;;;;6.80;4.53;;;;;;;16.18;100.00;99490.53;7395125;19;20503;-57
2021/10/03 01:00:27;;;;;;;7.93;4.73;;;;;;;16.28;100.00;99489.66;7403004;19;20472;-57
2021/10/03 01:02:58;;;;;;;7.23;4.40;;;;;;;16.43;100.00;99477.47;7395136;19;20438;-57
2021/10/03 01:05:28;;;;;;;15.40;3.97;;;;;;;16.47;100.00;99479.19;7401933;19;20868;-57
2021/10/03 01:07:58;;;;;;;5.53;3.87;;;;;;;16.53;100.00;99476.56;7395721;19;20425;-57
2021/10/03 01:10:28;;;;;;;5.87;3.60;;;;;;;16.53;100.00;99471.38;7402750;19;20384;-57
2021/10/03 01:13:07;;;;;;;8.50;4.20;;;;;;;16.60;100.00;99457.44;7395165;19;20437;-57
2021/10/03 01:15:39;;;;;;;7.10;4.40;;;;;;;16.72;100.00;99463.50;7402033;19;20407;-57
2021/10/03 01:18:09;;;;;;;9.83;5.20;;;;;;;16.82;100.00;99459.09;7397007;19;20506;-56
2021/10/03 01:20:39;;;;;;;6.80;3.57;;;;;;;16.88;100.00;99465.13;7402531;19;20468;-57
2021/10/03 01:23:11;;;;;;;8.20;4.10;;;;;;;16.96;100.00;99462.50;7388540;19;20531;-56
2021/10/03 01:25:44;;;;;;;6.27;4.27;;;;;;;17.01;100.00;99462.47;7400906;19;20690;-57
2021/10/03 01:28:14;;;;;;;5.13;3.87;;;;;;;17.24;100.00;99438.06;7395431;19;20948;-55
2021/10/03 01:30:47;;;;;;;6.20;3.50;;;;;;;17.51;100.00;99436.13;7402401;19;20459;-57
2021/10/03 01:33:17;;;;;;;10.90;4.63;;;;;;;17.72;100.00;99442.91;7394793;19;20415;-58
2021/10/03 01:35:48;;;;;;;6.07;3.77;;;;;;;17.68;100.00;99447.28;7400653;19;20384;-56
2021/10/03 01:38:20;;;;;;;7.50;3.70;;;;;;;17.65;100.00;99442.06;7384021;19;20449;-54
2021/10/03 01:40:51;;;;;;;8.60;4.13;;;;;;;17.78;100.00;99436.75;7401563;19;20451;-54
2021/10/03 01:43:21;;;;;;;5.27;3.53;;;;;;;17.82;100.00;99433.25;7393756;19;20419;-56
2021/10/03 01:45:50;;;;;;;6.07;3.80;;;;;;;17.76;100.00;99434.19;7401191;19;20466;-56
2021/10/03 01:48:40;;;;;;;7.43;4.50;;;;;;;17.85;100.00;99441.06;7402944;19;20455;-58
2021/10/03 01:51:11;;;;;;;6.50;4.23;;;;;;;17.90;100.00;99441.00;7406147;19;20388;-56
2021/10/03 01:53:46;;;;;;;6.80;3.43;;;;;;;17.95;100.00;99434.00;7398004;19;20482;-56
2021/10/03 01:56:16;;;;;;;7.83;4.53;;;;;;;17.95;100.00;99434.84;7393938;19;20427;-56
2021/10/03 01:58:47;;;;;;;4.90;3.50;;;;;;;17.87;100.00;99431.47;7399119;19;20398;-53
2021/10/03 02:01:19;;;;;;;6.33;4.00;;;;;;;17.90;100.00;99436.63;7392363;19;20455;-54
2021/10/03 02:03:49;;;;;;;6.50;4.20;;;;;;;17.96;100.00;99430.50;7399683;19;20436;-56
2021/10/03 02:06:19;;;;;;;7.47;4.37;;;;;;;17.90;100.00;99426.19;7373134;19;20413;-55
2021/10/03 02:08:54;;;;;;;6.27;3.93;;;;;;;17.83;100.00;99431.50;7399169;19;20408;-56
2021/10/03 02:11:25;;;;;;;6.20;3.73;;;;;;;17.87;100.00;99431.47;7393613;19;20721;-55
2021/10/03 02:13:55;;;;;;;8.47;4.67;;;;;;;17.86;100.00;99414.09;7399150;19;20881;-54
2021/10/03 02:16:24;;;;;;;6.50;4.17;;;;;;;17.84;100.00;99421.03;7375596;19;20408;-56
2021/10/03 02:18:54;;;;;;;7.67;4.03;;;;;;;17.93;100.00;99407.94;7399534;19;20392;-55
2021/10/03 02:21:24;;;;;;;11.07;4.33;;;;;;;17.97;100.00;99419.19;7393535;19;20455;-55
2021/10/03 02:23:56;;;;;;;7.40;3.80;;;;;;;18.01;100.00;99413.06;7399102;19;20944;-57
2021/10/03 02:26:25;;;;;;;8.30;4.30;;;;;;;17.97;100.00;99405.28;7392828;19;20392;-55
2021/10/03 02:28:55;;;;;;;7.53;4.13;;;;;;;18.06;100.00;99400.00;7399648;19;20468;-57
2021/10/03 02:31:24;;;;;;;9.23;4.47;;;;;;;18.01;100.00;99397.41;7397164;19;20886;-55
2021/10/03 02:33:54;;;;;;;9.87;3.90;;;;;;;18.01;100.00;99400.03;7397851;19;20877;-54
2021/10/03 02:36:25;;;;;;;6.73;3.77;;;;;;;18.03;100.00;99405.22;7393060;19;20391;-55
2021/10/03 02:38:57;;;;;;;5.10;2.90;;;;;;;18.00;100.00;99405.25;7398967;19;20418;-57
2021/10/03 02:41:26;;;;;;;5.53;3.47;;;;;;;18.12;100.00;99386.88;7393786;19;20396;-54
2021/10/03 02:43:58;;;;;;;6.13;3.40;;;;;;;18.10;100.00;99391.25;7398975;19;20423;-55
2021/10/03 02:46:29;;;;;;;5.20;3.63;;;;;;;18.13;100.00;99383.38;7390681;19;20417;-57
2021/10/03 02:48:59;;;;;;;9.80;4.33;;;;;;;18.19;100.00;99387.66;7399704;19;20392;-57
2021/10/03 02:51:31;;;;;;;5.60;3.60;;;;;;;18.15;100.00;99383.38;7392232;19;20398;-55
2021/10/03 02:54:03;;;;;;;12.97;4.20;;;;;;;18.17;100.00;99379.00;7398477;19;20427;-55
2021/10/03 02:56:33;;;;;;;7.93;3.80;;;;;;;18.17;100.00;99389.44;7392008;19;20459;-56
2021/10/03 02:59:02;;;;;;;5.30;3.50;;;;;;;18.22;100.00;99396.31;7401821;19;20406;-54
2021/10/03 03:01:32;;;;;;;6.07;3.97;;;;;;;18.22;100.00;99400.69;7374515;19;20658;-55
2021/10/03 03:04:02;;;;;;;5.90;4.20;;;;;;;18.25;100.00;99402.41;7395992;19;20435;-54
2021/10/03 03:06:31;;;;;;;7.50;3.80;;;;;;;18.23;100.00;99399.81;7392001;19;20383;-55
2021/10/03 03:09:03;;;;;;;6.40;3.97;;;;;;;18.17;100.00;99394.66;7399289;19;20417;-56
2021/10/03 03:11:33;;;;;;;6.57;3.70;;;;;;;18.20;100.00;99398.09;7392826;19;20470;-56
2021/10/03 03:14:02;;;;;;;7.30;3.90;;;;;;;18.26;100.00;99399.78;7411989;19;20423;-55
2021/10/03 03:16:32;;;;;;;5.93;3.73;;;;;;;18.19;100.00;99400.72;7406181;19;20893;-55
2021/10/03 03:19:01;;;;;;;5.13;3.40;;;;;;;18.12;100.00;99399.94;7412602;19;20394;-55
2021/10/03 03:21:31;;;;;;;6.80;3.73;;;;;;;18.05;100.00;99404.34;7406757;19;20844;-57
2021/10/03 03:24:03;;;;;;;10.90;3.77;;;;;;;17.99;100.00;99403.53;7410705;19;20718;-54
2021/10/03 03:26:32;;;;;;;6.33;3.13;;;;;;;17.95;100.00;99392.25;7405704;19;20476;-55
2021/10/03 03:29:02;;;;;;;5.70;3.90;;;;;;;17.97;100.00;99400.94;7412865;19;20439;-53
2021/10/03 03:31:31;;;;;;;5.47;3.93;;;;;;;18.01;100.00;99401.75;7403538;19;20406;-54
2021/10/03 03:34:01;;;;;;;4.70;3.27;;;;;;;17.93;100.00;99413.16;7411418;19;20428;-56
2021/10/03 03:36:30;;;;;;;6.93;3.90;;;;;;;17.93;100.00;99409.66;7405332;19;20842;-57
2021/10/03 03:39:03;;;;;;;4.60;3.10;;;;;;;17.99;100.00;99419.19;7412144;19;20459;-55
2021/10/03 03:41:32;;;;;;;5.20;3.80;;;;;;;18.03;100.00;99410.44;7404922;19;20443;-53
2021/10/03 03:44:01;;;;;;;5.93;2.93;;;;;;;17.97;100.00;99400.06;7410643;19;20423;-55
2021/10/03 03:46:31;;;;;;;5.83;3.30;;;;;;;17.91;100.00;99407.09;7404851;19;20905;-57
2021/10/03 03:49:00;;;;;;;4.80;3.20;;;;;;;17.88;100.00;99404.50;7412727;19;20405;-57
2021/10/03 03:51:30;;;;;;;5.20;3.87;;;;;;;17.89;100.00;99403.59;7405406;19;20392;-58
2021/10/03 03:53:59;;;;;;;6.27;3.73;;;;;;;17.81;100.00;99410.66;7411311;19;20438;-56
2021/10/03 03:56:31;;;;;;;7.40;3.77;;;;;;;17.76;100.00;99407.22;7383331;19;20483;-55
2021/10/03 03:59:01;;;;;;;6.10;3.77;;;;;;;17.68;100.00;99405.56;7414001;19;20391;-57
2021/10/03 04:01:30;;;;;;;5.60;3.50;;;;;;;17.72;100.00;99405.50;7391227;19;20462;-55
2021/10/03 04:04:00;;;;;;;5.63;3.90;;;;;;;17.73;100.00;99412.47;7408643;19;20719;-57
2021/10/03 04:06:29;;;;;;;5.37;3.57;;;;;;;17.66;100.00;99411.66;7382078;19;20380;-58
2021/10/03 04:08:59;;;;;;;5.70;4.13;;;;;;;17.70;100.00;99412.50;7410480;19;20657;-53
2021/10/03 04:11:28;;;;;;;6.10;3.80;;;;;;;17.58;100.00;99403.03;7384930;19;20396;-55
2021/10/03 04:14:00;;;;;;;6.63;4.23;;;;;;;17.56;100.00;99400.44;7408346;19;20423;-56
2021/10/03 04:16:30;;;;;;;7.80;4.70;;;;;;;17.67;100.00;99408.16;7403521;19;20453;-56
2021/10/03 04:18:59;;;;;;;8.07;4.10;;;;;;;17.70;100.00;99404.66;7411385;19;20380;-57
2021/10/03 04:21:29;;;;;;;7.70;4.37;;;;;;;17.78;100.00;99410.66;7402859;19;20844;-55
2021/10/03 04:23:58;;;;;;;5.90;4.00;;;;;;;17.72;100.00;99418.53;7403716;19;20423;-57
2021/10/03 04:26:28;;;;;;;5.43;3.70;;;;;;;17.67;100.00;99414.25;7397064;19;20384;-54
2021/10/03 04:29:00;;;;;;;6.57;3.97;;;;;;;17.74;100.00;99419.41;7404553;19;20406;-57
2021/10/03 04:31:30;;;;;;;11.80;3.87;;;;;;;17.74;100.00;99416.81;7398260;19;20392;-55
2021/10/03 04:34:01;;;;;;;5.70;3.87;;;;;;;17.76;100.00;99417.66;7401634;19;20471;-57
2021/10/03 04:36:30;;;;;;;8.97;6.67;;;;;;;17.78;100.00;99421.97;7396586;19;20467;-56
2021/10/03 04:39:00;;;;;;;5.83;3.63;;;;;;;17.76;100.00;99415.03;7403789;19;20446;-55
2021/10/03 04:41:29;;;;;;;8.80;6.00;;;;;;;17.85;100.00;99417.59;7394618;19;20396;-53
2021/10/03 04:44:01;;;;;;;5.70;4.00;;;;;;;17.74;100.00;99420.25;7402193;19;20672;-52
2021/10/03 04:46:31;;;;;;;6.13;3.83;;;;;;;17.83;100.00;99429.75;7396741;19;20658;-57
2021/10/03 04:49:00;;;;;;;6.87;3.70;;;;;;;17.82;100.00;99417.59;7403672;19;20447;-54
2021/10/03 04:51:30;;;;;;;5.90;4.50;;;;;;;17.85;100.00;99411.50;7396061;19;20473;-53
2021/10/03 04:53:59;;;;;;;5.07;3.60;;;;;;;17.83;100.00;99413.25;7402198;19;20709;-53
2021/10/03 04:56:29;;;;;;;6.77;4.60;;;;;;;17.83;100.00;99411.50;7396254;19;20420;-51
2021/10/03 04:59:01;;;;;;;7.03;3.87;;;;;;;17.89;100.00;99423.63;7403479;19;20396;-53
2021/10/03 05:01:30;;;;;;;6.60;4.53;;;;;;;17.94;100.00;99414.88;7395266;19;20470;-55
2021/10/03 05:04:00;;;;;;;8.93;4.50;;;;;;;18.00;100.00;99405.25;7401436;19;20944;-54
2021/10/03 05:06:29;;;;;;;6.80;4.33;;;;;;;18.03;100.00;99408.69;7396261;19;20859;-56
2021/10/03 05:08:59;;;;;;;7.17;4.20;;;;;;;17.98;100.00;99412.22;7401753;19;20392;-51
2021/10/03 05:11:28;;;;;;;5.53;3.60;;;;;;;18.04;100.00;99409.53;7396697;19;20733;-56
2021/10/03 05:14:05;;;;;;;9.70;4.30;;;;;;;18.02;100.00;99400.88;7401055;19;20425;-57
2021/10/03 05:16:35;;;;;;;7.80;4.57;;;;;;;18.00;100.00;99410.47;7395330;19;20415;-57
2021/10/03 05:19:05;;;;;;;5.60;4.10;;;;;;;18.00;100.00;99410.47;7401586;19;20412;-57
2021/10/03 05:21:34;;;;;;;6.63;3.80;;;;;;;17.99;100.00;99413.97;7398294;19;20487;-56
2021/10/03 05:24:04;;;;;;;5.07;3.57;;;;;;;18.02;100.00;99419.13;7401109;19;20422;-55
2021/10/03 05:26:34;;;;;;;7.80;4.30;;;;;;;18.07;100.00;99405.22;7394354;19;20949;-53
2021/10/03 05:29:06;;;;;;;5.90;4.13;;;;;;;17.98;100.00;99414.81;7402337;19;20461;-57
2021/10/03 05:31:36;;;;;;;9.43;4.00;;;;;;;17.99;100.00;99403.53;7399222;19;20398;-57
2021/10/03 05:34:06;;;;;;;5.87;3.70;;;;;;;17.99;100.00;99412.19;7400665;19;20865;-55
2021/10/03 05:36:36;;;;;;;5.73;3.70;;;;;;;18.02;100.00;99416.53;7393349;19;20475;-53
2021/10/03 05:39:05;;;;;;;6.30;3.63;;;;;;;18.10;100.00;99396.47;7401805;19;20459;-54
2021/10/03 05:41:35;;;;;;;5.33;3.70;;;;;;;18.05;100.00;99403.47;7394296;19;20411;-56
2021/10/03 05:44:07;;;;;;;6.17;3.43;;;;;;;18.09;100.00;99399.94;7400399;19;20438;-57
2021/10/03 05:46:36;;;;;;;5.53;4.10;;;;;;;18.13;100.00;99395.56;7377759;19;20419;-54
2021/10/03 05:49:06;;;;;;;10.50;3.90;;;;;;;18.22;100.00;99398.94;7401693;19;20455;-54
2021/10/03 05:51:36;;;;;;;5.97;3.40;;;;;;;18.12;100.00;99404.28;7394342;19;20420;-56
2021/10/03 05:54:05;;;;;;;7.67;4.53;;;;;;;18.13;100.00;99392.94;7399420;19;20483;-56
2021/10/03 05:56:36;;;;;;;15.90;7.10;;;;;;;18.20;100.00;99395.50;7394012;19;20414;-54
2021/10/03 05:59:12;;;;;;;6.20;3.93;;;;;;;18.04;100.00;99397.38;7401444;19;20455;-57
2021/10/03 06:01:41;;;;;;;6.03;3.80;;;;;;;18.07;100.00;99393.91;7393718;19;20703;-57
2021/10/03 06:04:11;;;;;;;8.60;5.23;;;;;;;18.10;100.00;99400.84;7399630;19;20899;-52
2021/10/03 06:06:41;;;;;;;5.70;3.97;;;;;;;18.11;100.00;99407.78;7393832;19;20429;-56
2021/10/03 06:09:10;;;;;;;4.73;3.53;;;;;;;18.11;100.00;99392.13;7401181;19;20402;-55
2021/10/03 06:11:40;;;;;;;6.00;4.10;;;;;;;18.14;100.00;99398.16;7393321;19;20422;-55
2021/10/03 06:14:12;;;;;;;4.37;3.27;;;;;;;18.14;100.00;99408.59;7399446;19;20416;-52
2021/10/03 06:16:42;;;;;;;4.67;3.40;;;;;;;18.09;100.00;99405.19;7393686;19;20419;-55
2021/10/03 06:19:12;;;;;;;4.97;3.60;;;;;;;18.14;100.00;99408.59;7400813;19;20464;-53
2021/10/03 06:21:42;;;;;;;5.10;3.57;;;;;;;18.11;100.00;99413.88;7392703;19;20411;-56
2021/10/03 06:24:12;;;;;;;6.83;4.37;;;;;;;18.22;100.00;99406.75;7399353;19;20479;-55
2021/10/03 06:26:43;;;;;;;6.20;3.77;;;;;;;18.18;100.00;99410.31;7392366;19;20451;-52
2021/10/03 06:29:15;;;;;;;4.80;3.87;;;;;;;18.21;100.00;99398.97;7402161;19;20411;-55
2021/10/03 06:31:45;;;;;;;5.40;3.50;;;;;;;18.23;100.00;99412.88;7371266;19;20427;-57
2021/10/03 06:34:15;;;;;;;10.50;3.90;;;;;;;18.21;100.00;99410.25;7399021;19;20455;-57
2021/10/03 06:36:44;;;;;;;5.60;3.60;;;;;;;18.27;100.00;99416.28;7381942;19;20425;-51
2021/10/03 06:39:15;;;;;;;8.33;3.40;;;;;;;18.36;100.00;99418.81;7398388;19;20384;-53
2021/10/03 06:41:46;;;;;;;6.00;3.60;;;;;;;18.33;100.00;99418.84;7370508;19;20697;-51
2021/10/03 06:44:18;;;;;;;5.23;3.47;;;;;;;18.27;100.00;99419.78;7398539;19;20419;-55
2021/10/03 06:46:48;;;;;;;6.83;4.40;;;;;;;18.31;100.00;99418.00;7361990;19;20403;-57
2021/10/03 06:49:17;;;;;;;6.17;3.43;;;;;;;18.20;100.00;99423.34;7398753;19;20860;-53
2021/10/03 06:51:46;;;;;;;8.30;5.03;;;;;;;18.25;100.00;99436.34;7367197;19;20475;-54
2021/10/03 06:54:17;;;;;;;7.03;4.20;;;;;;;18.29;100.00;99430.19;7396954;19;20418;-56
2021/10/03 06:56:47;;;;;;;5.50;3.70;;;;;;;18.40;100.00;99430.94;7365089;19;20876;-58
2021/10/03 06:59:20;;;;;;;7.20;3.93;;;;;;;18.47;100.00;99427.38;7398562;19;20458;-56
2021/10/03 07:01:50;;;;;;;6.20;3.87;;;;;;;18.46;100.00;99437.84;7364965;19;20449;-55
2021/10/03 07:04:19;;;;;;;5.77;3.80;;;;;;;18.41;100.00;99432.66;7396049;19;20426;-56
2021/10/03 07:06:49;;;;;;;9.00;3.77;;;;;;;18.39;100.00;99434.44;7391867;19;20766;-52
2021/10/03 07:09:18;;;;;;;9.33;5.30;;;;;;;18.44;100.00;99434.38;7399300;19;20411;-56
2021/10/03 07:11:48;;;;;;;12.43;5.30;;;;;;;18.46;100.00;99441.31;7392709;19;20419;-56
2021/10/03 07:14:25;;;;;;;10.67;5.40;;;;;;;18.51;100.00;99437.78;7399347;19;20438;-56
2021/10/03 07:16:54;;;;;;;7.03;4.20;;;;;;;18.47;100.00;99440.41;7391164;19;20486;-54
2021/10/03 07:19:24;;;;;;;8.23;5.40;;;;;;;18.60;100.00;99440.28;7398999;19;20467;-56
2021/10/03 07:21:53;;;;;;;17.97;5.00;;;;;;;18.71;100.00;99437.56;7390675;19;20499;-57
2021/10/03 07:24:23;;;;;;;6.10;3.63;;;;;;;18.65;100.00;99441.09;7397857;19;20498;-57
2021/10/03 07:26:52;;;;;;;8.70;5.00;;;;;;;18.63;100.00;99435.88;7390378;19;20510;-54
2021/10/03 07:29:24;;;;;;;7.20;3.73;;;;;;;18.70;100.00;99439.28;7398736;19;20391;-57
2021/10/03 07:31:54;;;;;;;8.10;4.80;;;;;;;18.71;100.00;99441.00;7394517;19;20494;-58
2021/10/03 07:34:23;;;;;;;10.13;5.10;;;;;;;18.78;100.00;99440.94;7397050;19;20423;-57
2021/10/03 07:36:53;;;;;;;11.17;5.73;;;;;;;18.80;100.00;99445.25;7392279;19;20417;-57
2021/10/03 07:39:22;;;;;;;9.73;4.47;;;;;;;18.71;100.00;99456.69;7398153;19;20648;-57
2021/10/03 07:41:52;;;;;;;6.50;4.00;;;;;;;18.68;100.00;99454.13;7391404;19;20694;-56
2021/10/03 07:44:24;;;;;;;12.50;5.93;;;;;;;18.71;100.00;99464.53;7396629;19;20933;-58
2021/10/03 07:46:54;;;;;;;5.50;3.50;;;;;;;18.72;100.00;99468.00;7391076;19;20415;-53
2021/10/03 07:49:23;;;;;;;6.63;4.40;;;;;;;18.75;100.00;99465.34;7397370;19;20663;-57
2021/10/03 07:51:53;;;;;;;6.50;4.23;;;;;;;18.80;100.00;99470.50;7391222;19;20471;-55
2021/10/03 07:54:22;;;;;;;7.97;4.60;;;;;;;18.75;100.00;99474.06;7395369;19;20452;-57
2021/10/03 07:56:53;;;;;;;6.83;4.00;;;;;;;18.81;100.00;99474.88;7389973;19;20419;-57
2021/10/03 07:59:25;;;;;;;8.73;4.20;;;;;;;18.81;100.00;99477.47;7401821;19;20388;-58
2021/10/03 08:01:56;;;;;;;9.10;6.27;;;;;;;18.73;100.00;99486.25;7401465;19;20689;-55
2021/10/03 08:04:26;;;;;;;7.87;3.80;;;;;;;18.91;100.00;99479.06;7403067;19;20419;-57
2021/10/03 08:06:55;;;;;;;12.83;5.03;;;;;;;18.89;100.00;99480.84;7399580;19;20417;-56
2021/10/03 08:09:25;;;;;;;6.50;4.17;;;;;;;18.96;100.00;99482.50;7404151;19;20407;-58
2021/10/03 08:11:55;;;;;;;6.23;3.93;;;;;;;18.95;100.00;99474.66;7395968;19;20452;-58
2021/10/03 08:14:27;;;;;;;7.60;4.00;;;;;;;18.98;100.00;99478.09;7404336;19;20460;-58
2021/10/03 08:16:56;;;;;;;7.77;4.57;;;;;;;19.01;100.00;99478.06;7397069;19;20431;-56
2021/10/03 08:19:26;;;;;;;10.30;5.40;;;;;;;19.03;100.00;99480.72;7402502;19;20735;-58
2021/10/03 08:21:55;;;;;;;7.23;4.20;;;;;;;19.00;100.00;99484.19;7398509;19;20439;-55
2021/10/03 08:24:25;;;;;;;7.17;4.27;;;;;;;19.00;100.00;99467.63;7403692;19;20920;-56
2021/10/03 08:26:55;;;;;;;9.93;4.40;;;;;;;19.07;100.00;99473.69;7397575;19;20451;-56
2021/10/03 08:29:27;;;;;;;7.50;5.07;;;;;;;18.99;100.00;99474.63;7408372;19;20679;-57
2021/10/03 08:31:56;;;;;;;8.80;4.03;;;;;;;18.95;100.00;99474.66;7397486;19;20411;-58
2021/10/03 08:34:26;;;;;;;8.60;4.00;;;;;;;18.96;100.00;99466.81;7401368;19;20435;-58
2021/10/03 08:36:55;;;;;;;5.90;3.70;;;;;;;18.95;100.00;99464.22;7398721;19;20424;-56
2021/10/03 08:39:25;;;;;;;6.17;3.40;;;;;;;18.85;100.00;99473.94;7404180;19;20462;-55
2021/10/03 08:41:54;;;;;;;7.53;4.23;;;;;;;19.00;100.00;99462.41;7396815;19;20423;-54
2021/10/03 08:44:31;;;;;;;8.30;3.80;;;;;;;18.98;100.00;99470.25;7403075;19;20453;-56
2021/10/03 08:47:00;;;;;;;5.60;3.87;;;;;;;19.02;100.00;99466.75;7396570;19;20503;-58
2021/10/03 08:49:33;;;;;;;6.83;4.40;;;;;;;19.11;100.00;99476.22;7406254;19;20400;-57
2021/10/03 08:52:02;;;;;;;8.77;5.87;;;;;;;19.13;100.00;99453.53;7396164;19;20418;-58
2021/10/03 08:54:37;;;;;;;6.20;4.43;;;;;;;18.92;100.00;99465.13;7404937;19;20447;-58
2021/10/03 08:57:06;;;;;;;8.30;4.87;;;;;;;18.86;100.00;99473.03;7395564;19;20485;-58
2021/10/03 09:00:07;;;;;;;7.03;4.37;;;;;;;18.74;100.00;99464.50;7401392;19;20372;-58
2021/10/03 09:02:56;;;;;;;4.93;3.10;;;;;;;18.59;100.00;99477.72;7394491;19;20439;-58
2021/10/03 09:05:27;;;;;;;6.43;4.40;;;;;;;18.60;100.00;99472.50;7401828;19;20746;-58
2021/10/03 09:08:02;;;;;;;7.50;4.50;;;;;;;18.54;100.00;99479.53;7395363;19;20423;-58
2021/10/03 09:10:46;;;;;;;9.97;4.10;;;;;;;18.59;100.00;99486.44;7402107;19;20665;-58
2021/10/03 09:13:16;;;;;;;8.07;5.60;;;;;;;18.65;100.00;99500.31;7396361;19;20518;-58
2021/10/03 09:15:49;;;;;;;7.10;5.23;;;;;;;18.58;100.00;99489.94;7403819;19;20893;-58
2021/10/03 09:18:21;;;;;;;6.10;4.40;;;;;;;18.59;100.00;99488.16;7399398;19;20483;-57
2021/10/03 09:20:51;;;;;;;9.70;4.07;;;;;;;18.53;100.00;99490.84;7402278;19;20388;-58
2021/10/03 09:23:21;;;;;;;6.40;4.13;;;;;;;18.61;100.00;99486.44;7395011;19;20479;-56
2021/10/03 09:25:52;;;;;;;7.63;4.40;;;;;;;18.66;100.00;99494.19;7401935;19;20443;-59
2021/10/03 09:28:29;;;;;;;6.40;4.10;;;;;;;18.66;100.00;99495.06;7394999;19;20411;-57
2021/10/03 09:31:21;;;;;;;5.57;4.10;;;;;;;18.70;100.00;99501.97;7401979;19;20392;-59
2021/10/03 09:33:52;;;;;;;6.47;3.87;;;;;;;18.79;100.00;99484.44;7400665;19;20435;-52
2021/10/03 09:36:23;;;;;;;7.73;4.30;;;;;;;18.83;100.00;99488.78;7396932;19;20407;-56
2021/10/03 09:38:57;;;;;;;6.17;4.17;;;;;;;18.86;100.00;99488.72;7400726;19;20400;-57
2021/10/03 09:41:28;;;;;;;5.53;3.20;;;;;;;18.85;100.00;99500.06;7393807;19;20638;-57
2021/10/03 09:43:59;;;;;;;6.63;3.90;;;;;;;18.95;100.00;99495.56;7400669;19;20454;-58
2021/10/03 09:46:43;;;;;;;5.77;3.50;;;;;;;18.97;100.00;99494.66;7395388;19;20475;-56
2021/10/03 09:49:14;;;;;;;6.77;3.93;;;;;;;19.04;100.00;99495.50;7401538;19;20704;-56
2021/10/03 09:51:46;;;;;;;8.07;4.30;;;;;;;19.07;100.00;99512.91;7395837;19;20471;-55
2021/10/03 09:54:17;;;;;;;12.30;4.33;;;;;;;19.05;100.00;99512.91;7400632;19;20491;-57
2021/10/03 09:56:47;;;;;;;6.70;4.50;;;;;;;19.11;100.00;99511.94;7392346;19;20419;-57
2021/10/03 09:59:17;;;;;;;5.90;4.10;;;;;;;18.99;100.00;99507.72;7400537;19;20391;-58
2021/10/03 10:01:50;;;;;;;13.03;5.10;;;;;;;18.89;100.00;99506.97;7394771;19;20429;-56
2021/10/03 10:04:20;;;;;;;15.40;5.13;;;;;;;18.85;100.00;99527.06;7399569;19;20419;-58
2021/10/03 10:06:50;;;;;;;7.77;4.40;;;;;;;18.98;100.00;99511.22;7392389;19;20420;-59
2021/10/03 10:09:22;;;;;;;5.47;3.70;;;;;;;19.00;100.00;99504.22;7401066;19;20444;-56
2021/10/03 10:11:54;;;;;;;5.60;4.00;;;;;;;19.05;100.00;99517.25;7393747;19;20419;-56
2021/10/03 10:14:29;;;;;;;13.20;3.90;;;;;;;19.00;100.00;99520.78;7398723;19;20986;-57
2021/10/03 10:17:02;;;;;;;9.87;4.27;;;;;;;18.94;100.00;99523.47;7393614;19;20888;-56
2021/10/03 10:19:38;;;;;;;8.77;4.83;;;;;;;18.91;100.00;99509.59;7401528;19;20447;-56
2021/10/03 10:22:39;;;;;;;6.67;4.40;;;;;;;18.92;100.00;99509.53;7391390;19;20498;-57
2021/10/03 10:25:16;;;;;;;6.53;3.60;;;;;;;18.88;100.00;99520.94;7400532;19;20909;-57
2021/10/03 10:28:01;;;;;;;6.90;3.70;;;;;;;18.92;100.00;99522.59;7392920;19;20881;-56
2021/10/03 10:30:31;;;;;;;9.20;3.70;;;;;;;19.02;100.00;99510.28;7399666;19;20395;-57
2021/10/03 10:33:15;;;;;;;7.70;4.67;;;;;;;19.00;100.00;99512.06;7392874;19;20440;-55
2021/10/03 10:35:45;;;;;;;5.23;3.70;;;;;;;18.94;100.00;99512.13;7400357;19;20406;-55
2021/10/03 10:38:24;;;;;;;6.60;5.03;;;;;;;18.93;100.00;99516.53;7393311;19;20412;-57
2021/10/03 10:40:54;;;;;;;4.73;3.57;;;;;;;19.01;100.00;99529.47;7400081;19;20391;-57
2021/10/03 10:43:41;;;;;;;9.67;3.63;;;;;;;18.97;100.00;99512.97;7391589;19;20411;-58
2021/10/03 10:46:41;;;;;;;7.10;4.30;;;;;;;18.87;100.00;99519.22;7399367;19;20392;-58
2021/10/03 10:49:30;;;;;;;7.03;4.37;;;;;;;18.91;100.00;99505.19;7398468;19;20415;-57
2021/10/03 10:52:27;;;;;;;6.30;4.17;;;;;;;18.97;100.00;99515.56;7391956;19;20486;-57
2021/10/03 10:55:27;;;;;;;6.43;3.50;;;;;;;18.99;100.00;99513.84;7399438;19;20394;-57
2021/10/03 10:58:21;;;;;;;5.40;3.50;;;;;;;19.08;100.00;99517.22;7391752;19;20419;-54
2021/10/03 11:00:59;;;;;;;8.53;4.00;;;;;;;19.14;100.00;99517.16;7399629;19;20407;-58
2021/10/03 11:04:04;;;;;;;6.17;3.90;;;;;;;19.12;100.00;99514.56;7392036;19;20435;-56
2021/10/03 11:07:00;;;;;;;4.30;3.60;;;;;;;19.13;100.00;99515.44;7391318;19;20699;-58
2021/10/03 11:09:34;;;;;;;6.97;3.70;;;;;;;19.32;100.00;99508.19;7402155;19;20394;-59
2021/10/03 11:12:10;;;;;;;11.37;5.10;;;;;;;19.46;100.00;99499.25;7392231;19;20487;-56
2021/10/03 11:14:44;;;;;;;5.50;3.73;;;;;;;19.49;100.00;99514.94;7397563;19;20419;-58
2021/10/03 11:17:18;;;;;;;6.33;3.30;;;;;;;19.45;100.00;99516.72;7391495;19;20411;-52
2021/10/03 11:19:49;;;;;;;6.00;3.50;;;;;;;19.54;100.00;99511.34;7399307;19;20384;-56
2021/10/03 11:22:25;;;;;;;5.73;3.10;;;;;;;19.50;100.00;99517.53;7393998;19;20482;-57
2021/10/03 11:24:56;;;;;;;6.30;3.43;;;;;;;19.58;100.00;99511.31;7396464;19;20647;-57
2021/10/03 11:27:30;;;;;;;7.57;3.97;;;;;;;19.65;100.00;99512.94;7388746;19;20437;-56
2021/10/03 11:30:01;;;;;;;4.27;3.03;;;;;;;19.77;100.00;99502.28;7398844;19;20388;-54
2021/10/03 11:32:32;;;;;;;4.13;2.20;;;;;;;19.71;100.00;99507.63;7392311;19;20490;-58
2021/10/03 11:35:06;;;;;;;24.83;8.17;;;;;;;19.80;100.00;99517.91;7406081;19;20391;-57
2021/10/03 11:37:40;;;;;;;5.93;3.80;;;;;;;19.83;100.00;99507.41;7398856;19;20881;-55
2021/10/03 11:40:11;;;;;;;5.30;3.40;;;;;;;19.63;100.00;99505.09;7406747;19;20391;-57
2021/10/03 11:42:43;;;;;;;7.03;3.30;;;;;;;19.56;100.00;99509.59;7397222;19;20995;-58
2021/10/03 11:45:14;;;;;;;8.07;3.00;;;;;;;19.58;100.00;99501.69;7402130;19;20391;-58